createdAt,value
2023-05-07T00:00:30.364Z,10.86
2023-05-07T00:03:03.494Z,10.81
2023-05-07T00:05:50.356Z,10.76
2023-05-07T00:08:23.500Z,10.74
2023-05-07T00:11:17.354Z,10.74
2023-05-07T00:14:11.359Z,10.73
2023-05-07T00:16:58.526Z,10.72
2023-05-07T00:19:32.853Z,10.70
2023-05-07T00:22:19.365Z,10.69
2023-05-07T00:24:52.483Z,10.68
2023-05-07T00:27:39.356Z,10.64
2023-05-07T00:30:13.622Z,10.61
2023-05-07T00:33:00.413Z,10.60
2023-05-07T00:35:33.502Z,10.59
2023-05-07T00:38:20.413Z,10.56
2023-05-07T00:40:53.778Z,10.52
2023-05-07T00:43:42.668Z,10.51
2023-05-07T00:46:17.012Z,10.50
2023-05-07T00:49:03.382Z,10.48
2023-05-07T00:51:37.477Z,10.44
2023-05-07T00:54:24.409Z,10.42
2023-05-07T00:56:57.463Z,10.40
2023-05-07T00:59:44.420Z,10.35
2023-05-07T01:02:17.536Z,10.30
2023-05-07T01:05:04.449Z,10.22
2023-05-07T01:07:45.398Z,10.15
2023-05-07T01:10:39.389Z,10.12
2023-05-07T01:13:34.415Z,10.10
2023-05-07T01:16:29.384Z,10.10
2023-05-07T01:19:20.415Z,10.06
2023-05-07T01:21:58.716Z,10.07
2023-05-07T01:24:45.400Z,10.07
2023-05-07T01:27:25.378Z,10.09
2023-05-07T01:30:19.383Z,10.11
2023-05-07T01:33:15.396Z,10.13
2023-05-07T01:35:52.533Z,10.16
2023-05-07T01:38:40.415Z,10.18
2023-05-07T01:41:14.518Z,10.23
2023-05-07T01:44:02.403Z,10.27
2023-05-07T01:46:36.607Z,10.34
2023-05-07T01:49:24.397Z,10.37
2023-05-07T01:51:57.525Z,10.41
2023-05-07T01:54:44.404Z,10.43
2023-05-07T01:57:24.402Z,10.49
2023-05-07T02:00:12.646Z,10.54
2023-05-07T02:02:53.441Z,10.58
2023-05-07T02:05:40.470Z,10.61
2023-05-07T02:08:13.532Z,10.63
2023-05-07T02:11:01.659Z,10.63
2023-05-07T02:13:37.523Z,10.62
2023-05-07T02:16:24.491Z,10.63
2023-05-07T02:18:57.658Z,10.63
2023-05-07T02:21:44.409Z,10.63
2023-05-07T02:24:17.574Z,10.59
2023-05-07T02:27:04.380Z,10.55
2023-05-07T02:29:44.408Z,10.52
2023-05-07T02:32:31.464Z,10.47
2023-05-07T02:35:04.503Z,10.43
2023-05-07T02:37:51.447Z,10.43
2023-05-07T02:40:31.421Z,10.42
2023-05-07T02:43:25.453Z,10.43
2023-05-07T02:46:14.458Z,10.39
2023-05-07T02:48:47.568Z,10.38
2023-05-07T02:51:34.439Z,10.34
2023-05-07T02:54:07.905Z,10.33
2023-05-07T02:56:54.460Z,10.31
2023-05-07T02:59:27.566Z,10.31
2023-05-07T03:02:14.425Z,10.30
2023-05-07T03:04:47.604Z,10.31
2023-05-07T03:07:34.437Z,10.31
2023-05-07T03:10:07.562Z,10.30
2023-05-07T03:13:01.508Z,10.29
2023-05-07T03:15:55.508Z,10.27
2023-05-07T03:18:42.468Z,10.28
2023-05-07T03:21:15.748Z,10.30
2023-05-07T03:24:02.466Z,10.31
2023-05-07T03:26:35.601Z,10.30
2023-05-07T03:29:22.469Z,10.30
2023-05-07T03:31:55.561Z,10.30
2023-05-07T03:34:42.446Z,10.30
2023-05-07T03:37:15.587Z,10.32
2023-05-07T03:40:02.445Z,10.29
2023-05-07T03:42:36.573Z,10.30
2023-05-07T03:45:23.464Z,10.29
2023-05-07T03:47:56.603Z,10.30
2023-05-07T03:50:43.477Z,10.31
2023-05-07T03:53:16.568Z,10.32
2023-05-07T03:55:57.469Z,10.31
2023-05-07T03:58:37.565Z,10.30
2023-05-07T04:01:17.448Z,10.30
2023-05-07T04:03:57.840Z,10.33
2023-05-07T04:06:38.471Z,10.33
2023-05-07T04:09:18.513Z,10.37
2023-05-07T04:11:58.471Z,10.41
2023-05-07T04:14:45.475Z,10.42
2023-05-07T04:17:25.507Z,10.41
2023-05-07T04:20:14.454Z,10.43
2023-05-07T04:22:47.571Z,10.46
2023-05-07T04:25:34.473Z,10.44
2023-05-07T04:28:14.536Z,10.44
2023-05-07T04:31:01.488Z,10.46
2023-05-07T04:33:41.463Z,10.49
2023-05-07T04:36:35.483Z,10.49
2023-05-07T04:39:29.490Z,10.49
2023-05-07T04:42:17.488Z,10.51
2023-05-07T04:44:52.583Z,10.53
2023-05-07T04:47:39.535Z,10.55
2023-05-07T04:50:14.588Z,10.56
2023-05-07T04:53:01.478Z,10.59
2023-05-07T04:55:34.705Z,10.66
2023-05-07T04:58:21.494Z,10.75
2023-05-07T05:00:54.596Z,10.76
2023-05-07T05:03:41.514Z,10.76
2023-05-07T05:06:14.596Z,10.80
2023-05-07T05:09:01.487Z,10.89
2023-05-07T05:11:41.510Z,10.85
2023-05-07T05:14:35.494Z,10.98
2023-05-07T05:17:22.558Z,11.15
2023-05-07T05:20:02.531Z,11.22
2023-05-07T05:22:50.490Z,11.20
2023-05-07T05:25:30.487Z,11.12
2023-05-07T05:28:17.537Z,11.05
2023-05-07T05:30:50.940Z,11.07
2023-05-07T05:33:37.516Z,11.05
2023-05-07T05:36:18.512Z,11.02
2023-05-07T05:39:12.521Z,10.99
2023-05-07T05:42:06.512Z,10.94
2023-05-07T05:44:53.514Z,10.87
2023-05-07T05:47:26.608Z,10.81
2023-05-07T05:50:14.521Z,10.77
2023-05-07T05:52:47.636Z,10.74
2023-05-07T05:55:34.527Z,10.76
2023-05-07T05:58:08.623Z,10.76
2023-05-07T06:00:55.523Z,10.80
2023-05-07T06:03:35.519Z,10.80
2023-05-07T06:06:29.521Z,10.83
2023-05-07T06:09:23.538Z,10.85
2023-05-07T06:12:17.564Z,10.99
2023-05-07T06:15:11.510Z,11.22
2023-05-07T06:18:05.564Z,11.35
2023-05-07T06:20:52.540Z,11.43
2023-05-07T06:23:25.755Z,11.52
2023-05-07T06:26:12.557Z,11.63
2023-05-07T06:28:45.640Z,11.64
2023-05-07T06:31:38.619Z,11.85
2023-05-07T06:34:15.131Z,12.14
2023-05-07T06:37:02.543Z,12.27
2023-05-07T06:39:35.924Z,12.27
2023-05-07T06:42:22.527Z,12.19
2023-05-07T06:44:56.082Z,12.06
2023-05-07T06:47:42.590Z,12.12
2023-05-07T06:50:24.566Z,12.25
2023-05-07T06:53:11.549Z,12.29
2023-05-07T06:55:44.640Z,12.35
2023-05-07T06:58:31.559Z,12.54
2023-05-07T07:01:04.686Z,12.73
2023-05-07T07:03:51.555Z,12.69
2023-05-07T07:06:31.557Z,12.56
2023-05-07T07:09:18.547Z,12.88
2023-05-07T07:11:51.689Z,13.12
2023-05-07T07:14:45.577Z,13.08
2023-05-07T07:17:39.664Z,13.07
2023-05-07T07:20:33.559Z,13.14
2023-05-07T07:23:13.566Z,13.06
2023-05-07T07:25:53.653Z,12.91
2023-05-07T07:28:33.539Z,12.85
2023-05-07T07:31:20.633Z,12.83
2023-05-07T07:34:14.546Z,12.94
2023-05-07T07:37:12.569Z,13.12
2023-05-07T07:39:59.684Z,13.17
2023-05-07T07:42:32.699Z,13.30
2023-05-07T07:45:19.581Z,13.38
2023-05-07T07:47:52.695Z,13.40
2023-05-07T07:50:44.988Z,13.39
2023-05-07T07:53:25.571Z,13.66
2023-05-07T07:56:19.573Z,13.95
2023-05-07T07:59:06.583Z,14.31
2023-05-07T08:01:46.664Z,14.46
2023-05-07T08:04:40.662Z,14.60
2023-05-07T08:07:30.573Z,14.78
2023-05-07T08:10:03.757Z,15.09
2023-05-07T08:12:57.605Z,15.07
2023-05-07T08:15:51.608Z,15.10
2023-05-07T08:18:45.584Z,14.70
2023-05-07T08:21:34.617Z,14.53
2023-05-07T08:24:07.690Z,14.50
2023-05-07T08:26:54.586Z,14.02
2023-05-07T08:29:27.695Z,14.16
2023-05-07T08:32:14.668Z,14.47
2023-05-07T08:34:47.713Z,14.58
2023-05-07T08:37:34.602Z,14.26
2023-05-07T08:40:10.738Z,14.02
2023-05-07T08:43:00.632Z,13.65
2023-05-07T08:45:35.762Z,13.46
2023-05-07T08:48:23.635Z,13.27
2023-05-07T08:50:57.709Z,12.99
2023-05-07T08:53:48.592Z,12.90
2023-05-07T08:56:29.643Z,12.84
2023-05-07T08:59:16.625Z,12.56
2023-05-07T09:01:49.830Z,12.41
2023-05-07T09:04:36.638Z,12.22
2023-05-07T09:07:16.616Z,12.06
2023-05-07T09:10:10.697Z,11.98
2023-05-07T09:13:05.752Z,11.68
2023-05-07T09:15:52.713Z,11.64
2023-05-07T09:18:26.475Z,11.56
2023-05-07T09:21:17.619Z,11.35
2023-05-07T09:23:57.853Z,11.25
2023-05-07T09:26:44.616Z,11.25
2023-05-07T09:29:25.617Z,11.05
2023-05-07T09:32:16.609Z,10.74
2023-05-07T09:34:56.634Z,10.83
2023-05-07T09:37:43.635Z,10.65
2023-05-07T09:40:34.652Z,10.60
2023-05-07T09:43:28.648Z,10.59
2023-05-07T09:46:31.669Z,10.63
2023-05-07T09:49:27.659Z,10.70
2023-05-07T09:52:00.735Z,10.66
2023-05-07T09:54:50.674Z,10.66
2023-05-07T09:57:33.627Z,10.63
2023-05-07T10:00:30.649Z,10.61
2023-05-07T10:03:19.726Z,10.43
2023-05-07T10:06:01.625Z,10.36
2023-05-07T10:08:57.648Z,10.35
2023-05-07T10:11:44.625Z,10.35
2023-05-07T10:14:25.654Z,10.16
2023-05-07T10:17:20.676Z,10.09
2023-05-07T10:20:08.569Z,10.11
2023-05-07T10:22:55.682Z,10.07
2023-05-07T10:25:42.671Z,9.94
2023-05-07T10:28:26.672Z,9.93
2023-05-07T10:32:04.661Z,9.90
2023-05-07T10:34:45.853Z,9.79
2023-05-07T10:37:32.685Z,9.76
2023-05-07T10:40:14.724Z,9.80
2023-05-07T10:43:14.691Z,9.86
2023-05-07T10:46:18.768Z,9.87
2023-05-07T10:49:12.549Z,9.88
2023-05-07T10:52:38.684Z,9.81
2023-05-07T10:55:44.709Z,9.86
2023-05-07T10:58:44.729Z,9.79
2023-05-07T11:02:05.769Z,9.66
2023-05-07T11:04:40.113Z,9.59
2023-05-07T11:07:35.685Z,9.52
2023-05-07T11:10:10.773Z,9.48
2023-05-07T11:13:05.734Z,9.38
2023-05-07T11:15:54.685Z,9.19
2023-05-07T11:18:27.895Z,9.15
2023-05-07T11:21:14.693Z,9.14
2023-05-07T11:23:55.685Z,9.11
2023-05-07T11:26:53.711Z,9.13
2023-05-07T11:29:30.070Z,9.20
2023-05-07T11:32:16.695Z,9.16
2023-05-07T11:34:57.668Z,9.14
2023-05-07T11:37:51.689Z,9.15
2023-05-07T11:40:38.685Z,9.25
2023-05-07T11:43:20.889Z,9.23
2023-05-07T11:46:16.700Z,9.10
2023-05-07T11:48:50.870Z,9.12
2023-05-07T11:51:38.739Z,9.23
2023-05-07T11:54:18.917Z,9.34
2023-05-07T11:57:06.732Z,9.36
2023-05-07T11:59:48.490Z,9.32
2023-05-07T12:02:35.793Z,9.31
2023-05-07T12:05:08.840Z,9.25
2023-05-07T12:07:55.676Z,9.04
2023-05-07T12:10:28.816Z,8.91
2023-05-07T12:13:38.687Z,8.82
2023-05-07T12:16:33.728Z,8.64
2023-05-07T12:19:27.728Z,8.55
2023-05-07T12:22:17.680Z,8.54
2023-05-07T12:24:55.923Z,8.56
2023-05-07T12:27:46.692Z,8.56
2023-05-07T12:30:27.768Z,8.53
2023-05-07T12:33:21.709Z,8.41
2023-05-07T12:36:12.710Z,8.30
2023-05-07T12:38:53.713Z,8.24
2023-05-07T12:42:06.703Z,8.18
2023-05-07T12:44:53.731Z,8.10
2023-05-07T12:47:34.792Z,8.07
2023-05-07T12:50:29.735Z,8.11
2023-05-07T12:53:19.732Z,8.13
2023-05-07T12:55:55.844Z,8.20
2023-05-07T12:58:43.712Z,8.13
2023-05-07T13:01:20.247Z,8.20
2023-05-07T13:04:11.793Z,8.23
2023-05-07T13:06:44.825Z,8.23
2023-05-07T13:09:31.728Z,8.24
2023-05-07T13:12:12.732Z,8.02
2023-05-07T13:15:06.726Z,8.04
2023-05-07T13:17:53.837Z,8.09
2023-05-07T13:20:26.808Z,8.06
2023-05-07T13:23:13.735Z,8.09
2023-05-07T13:25:46.865Z,8.05
2023-05-07T13:28:33.741Z,8.03
2023-05-07T13:31:13.778Z,8.06
2023-05-07T13:34:00.709Z,7.95
2023-05-07T13:36:38.058Z,7.99
2023-05-07T13:39:24.754Z,7.96
2023-05-07T13:41:57.953Z,7.82
2023-05-07T13:44:44.820Z,7.70
2023-05-07T13:47:18.854Z,7.62
2023-05-07T13:50:05.737Z,7.65
2023-05-07T13:52:47.140Z,7.59
2023-05-07T13:55:40.757Z,7.42
2023-05-07T13:58:36.522Z,7.31
2023-05-07T14:01:31.842Z,7.22
2023-05-07T14:04:18.760Z,7.16
2023-05-07T14:06:51.877Z,7.17
2023-05-07T14:09:38.739Z,7.08
2023-05-07T14:12:12.820Z,7.02
2023-05-07T14:15:06.758Z,6.95
2023-05-07T14:18:00.791Z,6.90
2023-05-07T14:20:47.772Z,6.82
2023-05-07T14:23:23.121Z,6.72
2023-05-07T14:26:09.742Z,6.71
2023-05-07T14:28:47.263Z,6.60
2023-05-07T14:31:33.857Z,6.59
2023-05-07T14:34:13.752Z,6.54
2023-05-07T14:37:07.769Z,6.45
2023-05-07T14:39:54.777Z,6.35
2023-05-07T14:42:27.852Z,6.39
2023-05-07T14:45:15.762Z,6.40
2023-05-07T14:47:48.963Z,6.35
2023-05-07T14:50:35.763Z,6.30
2023-05-07T14:53:18.765Z,6.31
2023-05-07T14:56:12.802Z,6.35
2023-05-07T14:58:59.752Z,6.37
2023-05-07T15:01:32.993Z,6.37
2023-05-07T15:04:19.796Z,6.32
2023-05-07T15:07:01.767Z,6.25
2023-05-07T15:09:52.940Z,6.17
2023-05-07T15:12:32.815Z,6.08
2023-05-07T15:15:26.900Z,6.04
2023-05-07T15:18:22.921Z,6.00
2023-05-07T15:21:09.789Z,5.96
2023-05-07T15:23:42.897Z,5.96
2023-05-07T15:26:30.790Z,5.99
2023-05-07T15:29:15.775Z,5.97
2023-05-07T15:32:09.885Z,5.91
2023-05-07T15:35:03.775Z,5.95
2023-05-07T15:37:57.781Z,5.91
2023-05-07T15:40:48.838Z,5.84
2023-05-07T15:43:22.635Z,5.80
2023-05-07T15:46:09.827Z,5.89
2023-05-07T15:48:43.009Z,5.85
2023-05-07T15:51:29.812Z,5.83
2023-05-07T15:54:09.866Z,5.85
2023-05-07T15:57:03.775Z,5.83
2023-05-07T15:59:57.811Z,5.82
2023-05-07T16:02:52.018Z,5.78
2023-05-07T16:05:45.819Z,5.73
2023-05-07T16:08:32.803Z,5.70
2023-05-07T16:11:13.796Z,5.70
2023-05-07T16:14:07.794Z,5.70
2023-05-07T16:17:01.919Z,5.69
2023-05-07T16:19:48.804Z,5.73
2023-05-07T16:22:28.805Z,5.78
2023-05-07T16:25:15.813Z,5.77
2023-05-07T16:27:55.802Z,5.79
2023-05-07T16:30:49.877Z,5.75
2023-05-07T16:33:36.799Z,5.72
2023-05-07T16:36:10.007Z,5.77
2023-05-07T16:38:56.828Z,5.79
2023-05-07T16:41:29.942Z,5.78
2023-05-07T16:44:16.838Z,5.72
2023-05-07T16:46:57.824Z,5.69
2023-05-07T16:49:53.033Z,5.68
2023-05-07T16:52:48.830Z,5.69
2023-05-07T16:55:41.802Z,5.55
2023-05-07T16:58:17.028Z,5.47
2023-05-07T17:01:03.827Z,5.47
2023-05-07T17:03:43.855Z,5.44
2023-05-07T17:06:37.817Z,5.46
2023-05-07T17:09:24.885Z,5.42
2023-05-07T17:11:58.038Z,5.35
2023-05-07T17:14:51.842Z,5.36
2023-05-07T17:17:38.868Z,5.28
2023-05-07T17:20:19.830Z,5.21
2023-05-07T17:23:14.843Z,5.20
2023-05-07T17:26:01.829Z,5.22
2023-05-07T17:28:36.952Z,5.20
2023-05-07T17:31:23.909Z,5.14
2023-05-07T17:34:05.882Z,5.15
2023-05-07T17:36:59.920Z,5.16
2023-05-07T17:39:48.821Z,5.17
2023-05-07T17:42:22.046Z,5.18
2023-05-07T17:45:08.841Z,5.21
2023-05-07T17:47:48.869Z,5.18
2023-05-07T17:50:43.918Z,5.18
2023-05-07T17:53:30.855Z,5.12
2023-05-07T17:56:10.839Z,5.11
2023-05-07T17:59:07.834Z,5.09
2023-05-07T18:01:54.981Z,5.11
2023-05-07T18:04:29.136Z,5.11
2023-05-07T18:07:15.813Z,5.08
2023-05-07T18:09:49.053Z,5.02
2023-05-07T18:12:36.844Z,5.01
2023-05-07T18:15:17.873Z,5.01
2023-05-07T18:18:11.895Z,5.03
2023-05-07T18:20:58.901Z,5.00
2023-05-07T18:23:35.640Z,5.02
2023-05-07T18:26:23.932Z,5.00
2023-05-07T18:28:56.988Z,5.00
2023-05-07T18:31:44.097Z,4.95
2023-05-07T18:34:18.004Z,4.91
2023-05-07T18:37:04.878Z,4.91
2023-05-07T18:39:39.020Z,4.92
2023-05-07T18:42:25.876Z,4.91
2023-05-07T18:44:59.029Z,4.85
2023-05-07T18:47:45.949Z,4.79
2023-05-07T18:50:19.747Z,4.74
2023-05-07T18:53:08.850Z,4.73
2023-05-07T18:55:53.887Z,4.75
2023-05-07T18:58:40.858Z,4.77
2023-05-07T19:01:20.934Z,4.77
2023-05-07T19:04:07.930Z,4.76
2023-05-07T19:06:48.877Z,4.74
2023-05-07T19:09:53.658Z,4.72
2023-05-07T19:12:54.923Z,4.72
2023-05-07T19:15:48.921Z,4.76
2023-05-07T19:18:42.882Z,4.72
2023-05-07T19:21:29.864Z,4.73
2023-05-07T19:24:03.003Z,4.74
2023-05-07T19:26:50.950Z,4.71
2023-05-07T19:29:24.116Z,4.69
2023-05-07T19:32:10.955Z,4.72
2023-05-07T19:34:46.028Z,4.72
2023-05-07T19:37:34.898Z,4.74
2023-05-07T19:40:11.796Z,4.68
2023-05-07T19:43:03.903Z,4.64
2023-05-07T19:45:43.932Z,4.62
2023-05-07T19:48:30.880Z,4.60
2023-05-07T19:51:05.068Z,4.60
2023-05-07T19:53:52.903Z,4.62
2023-05-07T19:56:26.273Z,4.64
2023-05-07T19:59:13.896Z,4.67
2023-05-07T20:01:49.060Z,4.63
2023-05-07T20:04:39.877Z,4.63
2023-05-07T20:07:15.082Z,4.62
2023-05-07T20:10:01.963Z,4.59
2023-05-07T20:12:45.978Z,4.53
2023-05-07T20:15:39.966Z,4.52
2023-05-07T20:18:33.916Z,4.47
2023-05-07T20:21:29.901Z,4.48
2023-05-07T20:24:25.885Z,4.51
2023-05-07T20:27:12.908Z,4.52
2023-05-07T20:29:46.661Z,4.50
2023-05-07T20:32:32.946Z,4.51
2023-05-07T20:35:12.884Z,4.55
2023-05-07T20:37:59.922Z,4.54
2023-05-07T20:40:36.992Z,4.53
2023-05-07T20:43:24.918Z,4.43
2023-05-07T20:46:15.013Z,4.36
2023-05-07T20:49:02.905Z,4.30
2023-05-07T20:51:43.912Z,4.22
2023-05-07T20:54:37.893Z,4.24
2023-05-07T20:57:25.929Z,4.18
2023-05-07T20:59:59.239Z,4.12
2023-05-07T21:02:46.940Z,4.12
2023-05-07T21:05:26.920Z,4.16
2023-05-07T21:08:20.924Z,4.17
2023-05-07T21:11:16.927Z,4.12
2023-05-07T21:14:10.938Z,4.12
2023-05-07T21:16:57.972Z,4.12
2023-05-07T21:19:37.913Z,4.19
2023-05-07T21:22:31.963Z,4.12
2023-05-07T21:25:25.920Z,4.04
2023-05-07T21:28:14.923Z,4.02
2023-05-07T21:30:54.921Z,4.00
2023-05-07T21:33:48.967Z,4.02
2023-05-07T21:36:35.950Z,4.06
2023-05-07T21:39:09.150Z,4.09
2023-05-07T21:41:55.909Z,4.14
2023-05-07T21:44:35.918Z,4.11
2023-05-07T21:47:22.951Z,4.11
2023-05-07T21:50:02.956Z,4.14
2023-05-07T21:52:56.931Z,4.15
2023-05-07T21:55:43.946Z,4.04
2023-05-07T21:58:17.009Z,4.03
2023-05-07T22:01:04.971Z,4.01
2023-05-07T22:03:38.102Z,3.97
2023-05-07T22:06:27.921Z,3.98
2023-05-07T22:09:07.951Z,4.01
2023-05-07T22:12:01.942Z,4.04
2023-05-07T22:14:48.908Z,4.06
2023-05-07T22:17:30.977Z,4.06
2023-05-07T22:20:24.929Z,4.08
2023-05-07T22:23:18.950Z,4.09
2023-05-07T22:26:05.965Z,4.10
2023-05-07T22:28:39.071Z,3.99
2023-05-07T22:31:25.995Z,3.97
2023-05-07T22:33:59.091Z,3.96
2023-05-07T22:36:45.955Z,3.97
2023-05-07T22:39:25.936Z,3.99
2023-05-07T22:42:19.953Z,4.00
2023-05-07T22:45:06.951Z,3.96
2023-05-07T22:47:46.987Z,3.87
2023-05-07T22:50:40.966Z,3.84
2023-05-07T22:53:27.949Z,3.86
2023-05-07T22:56:03.699Z,3.89
2023-05-07T22:58:49.946Z,3.88
2023-05-07T23:01:31.022Z,3.90
2023-05-07T23:04:24.944Z,3.92
2023-05-07T23:07:11.960Z,3.93
2023-05-07T23:09:45.199Z,3.94
2023-05-07T23:12:31.958Z,3.89
2023-05-07T23:15:11.975Z,3.90
2023-05-07T23:18:06.987Z,3.86
2023-05-07T23:21:00.973Z,3.82
2023-05-07T23:23:54.960Z,3.85
2023-05-07T23:26:48.956Z,3.84
2023-05-07T23:29:42.980Z,3.86
2023-05-07T23:32:29.984Z,3.75
2023-05-07T23:35:03.445Z,3.71
2023-05-07T23:37:49.958Z,3.71
2023-05-07T23:40:30.973Z,3.72
2023-05-07T23:43:17.991Z,3.69
2023-05-07T23:45:57.972Z,3.68
2023-05-07T23:48:51.982Z,3.68
2023-05-07T23:51:45.982Z,3.65
2023-05-07T23:54:34.247Z,3.70
2023-05-07T23:57:07.072Z,3.75
2023-05-07T23:59:53.993Z,3.77
